Main page
METAR-TAF:

METAR-TAF

Airports :

Batesville Regional Airport

Batesville, Arkansas, United States

latitude: 35-44N, longitude: 091-39W, elevation: 462 ft

Current weather observation

The report was made 16 minutes ago, at 13:56 UTC
Wind 12 mph from the West
Temperature 72°F
Humidity 100%
Pressure 30.08 in. Hg
Visibility: 10 miles
Scattered clouds at a height of 5000 ft
Overcast at a height of 6500 ft
thunderstorm in vicinity, rain

METAR: KBVX 171356Z AUTO 27010KT 10SM VCTS RA SCT050 OVC065 22/22 A3008 RMK AO2 LTG DSNT SW AND W TSE00B48 SLP182 P0018 T02170217

Time: 09:12 (14:12 UTC)


TAF: missing

Weather observations and forecasts of more than 4000 airports (METAR and TAF reports).

The available stations are represented by yellow and red dots on the map.

Hover mouse over dot to see the name of the station.

Then click to see weather observations and forecasts.

To change the map : click on the green buttons with a black cross to zoom in, on the green button with a dash to zoom out, or on the green arrows for adjacent maps.


METAR-TAF: